Fairfax, California
Current Conditions -  °F | °C
As of 6:15 AM on Tuesday 27 Jan 2015 (Local Time) from KO69 Reporting Station
Overcast Overcast  
Wind Chill: 46°   Ceiling: 12000
Heat Index: 48°   Visibility: 8mi
Dew Point: 46°   Wind: 5mph
Humidity: 93%   Direction: 60°ENE
Pressure: 30.13"   Gusts: NA
Location:  37.99°N, 122.59°W
Report Text: KO69 271415Z AUTO 06004KT 8SM OVC120 09/08 A3013 RMK AO1
Loading
Personal Weather Stations






























Interactive Weather Map New forecast layout! Learn more

10-Day Weather Forecast

Advertisements
Track Severe Weather on mobile